Time;durP1;ratioP1;P1;durP2;ratioP2;P2;SDS_P1;SDS_P2;PMS_P1;PMS_P2;Temp;Humidity;BMP_temperature;BMP_pressure;BME280_temperature;BME280_humidity;BME280_pressure;Samples;Min_cycle;Max_cycle;Signal;HPM_P1;HPM_P2
2022/08/07 00:01:53;;;;;;;7.00;3.08;;;;;;;25.10;87.80;100476.50;4999070;28;20458;-92
2022/08/07 00:04:18;;;;;;;13.57;3.35;;;;;;;25.05;89.15;100483.78;5016622;28;20390;-86
2022/08/07 00:06:44;;;;;;;8.38;3.20;;;;;;;25.05;88.52;100487.31;5017577;28;20042;-88
2022/08/07 00:09:12;;;;;;;12.23;3.28;;;;;;;25.04;87.63;100499.22;5016566;28;20061;-86
2022/08/07 00:11:38;;;;;;;7.65;3.13;;;;;;;24.86;87.41;100502.28;5015803;28;20132;-88
2022/08/07 00:14:04;;;;;;;9.98;2.97;;;;;;;24.87;87.76;100484.13;5015875;28;20026;-91
2022/08/07 00:16:29;;;;;;;7.82;3.28;;;;;;;24.74;88.63;100514.34;5016968;28;20026;-89
2022/08/07 00:18:55;;;;;;;17.42;3.95;;;;;;;24.67;89.08;100519.97;4999576;28;20042;-91
2022/08/07 00:21:20;;;;;;;6.18;3.08;;;;;;;24.76;92.00;100533.88;4998931;28;20395;-90
2022/08/07 00:23:46;;;;;;;9.55;2.90;;;;;;;24.78;93.35;100537.97;5017730;28;20482;-94
2022/08/07 00:26:11;;;;;;;12.15;3.45;;;;;;;24.83;94.50;100550.78;5016947;28;20034;-86
2022/08/07 00:28:37;;;;;;;10.75;3.90;;;;;;;24.71;96.01;100553.63;5014801;28;20530;-86
2022/08/07 00:31:08;;;;;;;9.45;3.95;;;;;;;24.66;96.44;100565.22;4980861;28;20034;-88
2022/08/07 00:33:35;;;;;;;8.57;4.13;;;;;;;24.50;98.29;100568.81;5013757;28;20034;-86
2022/08/07 00:36:02;;;;;;;7.38;4.05;;;;;;;24.44;100.00;100579.84;5013967;28;20037;-87
2022/08/07 00:38:28;;;;;;;11.10;4.03;;;;;;;24.33;100.00;100588.91;5013751;28;20042;-84
2022/08/07 00:40:53;;;;;;;5.25;3.55;;;;;;;24.41;100.00;100583.06;4995906;28;20388;-86
2022/08/07 00:43:22;;;;;;;9.38;4.57;;;;;;;24.40;100.00;100581.41;4995736;28;20544;-86
2022/08/07 00:45:47;;;;;;;9.52;4.15;;;;;;;24.28;100.00;100570.69;5014521;28;20117;-87
2022/08/07 00:48:13;;;;;;;3.90;3.17;;;;;;;24.50;93.13;100565.28;4997106;28;20511;-87
2022/08/07 00:50:39;;;;;;;13.25;3.40;;;;;;;24.57;90.11;100564.03;5014325;28;20060;-89
2022/08/07 00:53:05;;;;;;;12.02;3.70;;;;;;;24.56;88.79;100569.72;5015262;28;20125;-88
2022/08/07 00:55:31;;;;;;;8.40;3.38;;;;;;;24.40;90.54;100568.69;5014377;28;20124;-89
2022/08/07 00:57:57;;;;;;;6.50;2.85;;;;;;;24.36;90.63;100577.59;5014097;28;20034;-87
2022/08/07 01:00:26;;;;;;;5.32;3.15;;;;;;;24.34;90.50;100574.28;5014585;28;20545;-88
2022/08/07 01:02:52;;;;;;;6.90;3.33;;;;;;;24.44;88.70;100577.13;5014235;28;20026;-87
2022/08/07 01:05:19;;;;;;;4.47;2.92;;;;;;;24.49;88.00;100577.22;5014790;28;20037;-87
2022/08/07 01:07:45;;;;;;;3.63;3.03;;;;;;;24.56;87.56;100573.22;5014408;28;20121;-87
2022/08/07 01:10:10;;;;;;;6.00;2.92;;;;;;;24.46;87.09;100564.97;4997486;28;20061;-88
2022/08/07 01:12:39;;;;;;;4.07;2.88;;;;;;;24.60;86.02;100562.69;5015296;28;20506;-89
2022/08/07 01:15:06;;;;;;;4.97;2.95;;;;;;;24.66;84.98;100559.78;4997674;28;20052;-91
2022/08/07 01:17:33;;;;;;;3.88;3.00;;;;;;;24.56;85.84;100561.59;5015463;28;20069;-87
2022/08/07 01:20:09;;;;;;;3.35;2.70;;;;;;;24.72;84.51;100554.44;4998005;28;20034;-91
2022/08/07 01:22:37;;;;;;;5.55;2.67;;;;;;;24.63;83.73;100548.63;4997770;28;20037;-92
2022/08/07 01:25:04;;;;;;;4.03;2.55;;;;;;;24.68;82.48;100544.09;4997604;28;20041;-86
2022/08/07 01:27:30;;;;;;;7.43;2.92;;;;;;;24.78;81.46;100550.72;4997719;28;20128;-91
2022/08/07 01:29:55;;;;;;;3.35;2.50;;;;;;;24.89;82.70;100549.78;4998107;28;20038;-88
2022/08/07 01:32:25;;;;;;;4.65;2.63;;;;;;;24.83;83.28;100546.19;4982154;28;20522;-90
2022/08/07 01:34:53;;;;;;;4.55;2.90;;;;;;;24.74;84.54;100552.28;5016640;28;20487;-91
2022/08/07 01:37:19;;;;;;;6.03;2.30;;;;;;;24.78;87.26;100548.00;4999872;28;20100;-88
2022/08/07 01:39:47;;;;;;;7.35;3.38;;;;;;;24.57;95.02;100544.22;4983093;28;20049;-87
2022/08/07 01:42:39;;;;;;;6.20;3.38;;;;;;;24.09;100.00;100545.78;5011374;28;20515;-87
2022/08/07 01:45:05;;;;;;;9.43;4.32;;;;;;;23.93;100.00;100535.00;5002417;28;20068;-89
2022/08/07 01:47:34;;;;;;;7.28;3.83;;;;;;;23.80;100.00;100538.03;5022187;28;20033;-91
2022/08/07 01:50:00;;;;;;;11.60;4.30;;;;;;;23.74;100.00;100537.13;5005119;28;20034;-93
2022/08/07 01:52:32;;;;;;;7.80;4.40;;;;;;;23.80;100.00;100535.34;5024112;28;20117;-94
2022/08/07 01:54:59;;;;;;;7.38;4.55;;;;;;;23.84;100.00;100529.16;5023548;28;20030;-91
2022/08/07 01:57:33;;;;;;;9.38;3.90;;;;;;;23.81;100.00;100531.53;5005250;28;20569;-91
2022/08/07 02:00:07;;;;;;;15.30;4.68;;;;;;;23.67;100.00;100520.25;5004811;28;20030;-91
2022/08/07 02:02:49;;;;;;;7.88;4.28;;;;;;;23.55;100.00;100514.13;5011721;28;20427;-86
2022/08/07 02:05:32;;;;;;;8.80;4.13;;;;;;;23.40;100.00;100514.69;5010167;28;20033;-92
2022/08/07 02:08:02;;;;;;;8.35;4.07;;;;;;;23.27;100.00;100503.38;5023235;28;20033;-89
2022/08/07 02:10:35;;;;;;;10.40;3.88;;;;;;;23.27;100.00;100508.78;4968761;28;20065;-88
2022/08/07 02:13:04;;;;;;;9.43;3.50;;;;;;;23.16;100.00;100491.56;5000198;28;20037;-90
2022/08/07 02:15:37;;;;;;;11.43;3.70;;;;;;;23.04;100.00;100483.50;5000627;28;20506;-87
2022/08/07 02:18:04;;;;;;;6.45;3.85;;;;;;;22.99;100.00;100467.22;5009910;28;20052;-87
2022/08/07 02:20:32;;;;;;;9.02;3.20;;;;;;;23.11;100.00;100465.25;5031994;28;20098;-82
2022/08/07 02:23:03;;;;;;;4.13;2.95;;;;;;;23.35;100.00;100463.19;5016335;28;20045;-82
2022/08/07 02:25:33;;;;;;;5.30;3.10;;;;;;;23.52;100.00;100464.03;5016738;28;20029;-83
2022/08/07 02:28:00;;;;;;;5.35;3.05;;;;;;;23.38;100.00;100456.47;5015893;28;20045;-83
2022/08/07 02:30:27;;;;;;;4.68;3.13;;;;;;;23.33;100.00;100459.94;5007614;28;20050;-88
2022/08/07 02:32:56;;;;;;;4.13;3.22;;;;;;;23.24;100.00;100455.97;5000504;28;20454;-88
2022/08/07 02:35:23;;;;;;;4.15;2.67;;;;;;;23.18;100.00;100457.78;5017631;28;20124;-86
2022/08/07 02:37:52;;;;;;;6.22;3.72;;;;;;;23.18;100.00;100457.78;4983643;28;20030;-88
2022/08/07 02:40:18;;;;;;;10.20;3.80;;;;;;;23.26;100.00;100456.56;4999975;28;20034;-89
2022/08/07 02:43:05;;;;;;;5.68;2.92;;;;;;;23.17;100.00;100458.84;5022235;28;20041;-84
2022/08/07 02:45:32;;;;;;;9.18;3.45;;;;;;;23.27;100.00;100466.28;5020608;28;20034;-84
2022/08/07 02:47:58;;;;;;;5.45;3.25;;;;;;;23.14;100.00;100469.31;5040444;28;20052;-85
2022/08/07 02:50:27;;;;;;;5.55;2.58;;;;;;;23.04;100.00;100474.56;5023710;28;20018;-83
2022/08/07 02:52:58;;;;;;;5.15;2.97;;;;;;;22.95;100.00;100474.16;5018891;28;20041;-87
2022/08/07 02:55:26;;;;;;;7.30;3.20;;;;;;;22.95;100.00;100474.16;4998510;28;20042;-89
2022/08/07 02:57:54;;;;;;;6.10;3.10;;;;;;;22.88;100.00;100475.38;4998880;28;20125;-87
2022/08/07 03:00:23;;;;;;;8.85;3.17;;;;;;;22.86;100.00;100475.63;4998615;28;20065;-86
2022/08/07 03:02:51;;;;;;;5.85;3.28;;;;;;;22.86;100.00;100481.03;5015785;28;20080;-88
2022/08/07 03:05:18;;;;;;;4.35;2.65;;;;;;;22.88;100.00;100484.31;4999033;28;20061;-85
2022/08/07 03:07:46;;;;;;;4.25;2.88;;;;;;;22.94;100.00;100488.72;4983121;28;20038;-85
2022/08/07 03:10:13;;;;;;;4.15;3.20;;;;;;;22.95;100.00;100494.97;4998031;28;20030;-84
2022/08/07 03:12:39;;;;;;;6.25;3.30;;;;;;;22.99;100.00;100502.34;5015975;28;20040;-88
2022/08/07 03:15:10;;;;;;;3.53;2.72;;;;;;;23.00;100.00;100498.56;4998054;28;20065;-89
2022/08/07 03:17:38;;;;;;;3.95;3.28;;;;;;;22.99;100.00;100507.75;4998025;28;20042;-86
2022/08/07 03:20:07;;;;;;;5.15;2.95;;;;;;;23.05;100.00;100514.06;5015368;28;20041;-88
2022/08/07 03:22:34;;;;;;;5.22;2.88;;;;;;;23.15;100.00;100525.88;4997727;28;20487;-89
2022/08/07 03:25:00;;;;;;;12.20;3.03;;;;;;;23.32;100.00;100538.59;4997754;28;20036;-85
2022/08/07 03:27:33;;;;;;;3.50;2.80;;;;;;;23.43;100.00;100545.84;4997581;28;20484;-85
2022/08/07 03:30:01;;;;;;;3.55;2.80;;;;;;;23.48;100.00;100548.63;4998083;28;20038;-87
2022/08/07 03:32:35;;;;;;;6.28;3.05;;;;;;;23.68;100.00;100543.53;4997760;28;20122;-88
2022/08/07 03:35:04;;;;;;;5.72;2.85;;;;;;;23.79;100.00;100544.50;4997772;28;20443;-88
2022/08/07 03:37:33;;;;;;;4.47;3.00;;;;;;;23.70;100.00;100557.63;4981192;28;20033;-85
2022/08/07 03:40:02;;;;;;;5.68;2.78;;;;;;;23.55;100.00;100554.69;5015181;28;20034;-87
2022/08/07 03:42:38;;;;;;;4.30;2.60;;;;;;;23.46;100.00;100562.41;4997465;28;20383;-85
2022/08/07 03:45:05;;;;;;;6.90;3.00;;;;;;;23.50;100.00;100562.72;4997167;28;20065;-84
2022/08/07 03:47:31;;;;;;;3.33;2.63;;;;;;;23.66;100.00;100561.91;4980893;28;20038;-84
2022/08/07 03:49:58;;;;;;;4.43;2.58;;;;;;;23.86;100.00;100567.66;4996842;28;20037;-88
2022/08/07 03:52:31;;;;;;;6.63;2.85;;;;;;;23.80;100.00;100579.44;4997001;28;20180;-86
2022/08/07 03:55:01;;;;;;;4.80;2.50;;;;;;;23.71;100.00;100585.50;4997069;28;20034;-88
2022/08/07 03:57:30;;;;;;;3.40;2.65;;;;;;;23.64;100.00;100591.09;4996670;28;20041;-84
2022/08/07 03:59:57;;;;;;;2.97;2.42;;;;;;;23.52;100.00;100587.66;4996660;28;20049;-83
2022/08/07 04:02:23;;;;;;;5.03;2.90;;;;;;;23.37;100.00;100607.09;4996791;28;20030;-85
2022/08/07 04:04:49;;;;;;;5.22;2.95;;;;;;;23.18;100.00;100611.91;4996662;28;20030;-86
2022/08/07 04:07:16;;;;;;;5.55;2.85;;;;;;;23.15;100.00;100607.00;5013580;28;20052;-82
2022/08/07 04:09:46;;;;;;;6.25;3.03;;;;;;;23.15;100.00;100615.13;4996436;28;20030;-83
2022/08/07 04:12:13;;;;;;;6.80;3.60;;;;;;;23.30;100.00;100617.25;4980596;28;20125;-86
2022/08/07 04:14:40;;;;;;;7.53;3.28;;;;;;;23.42;100.00;100620.78;4996438;28;20386;-87
2022/08/07 04:17:07;;;;;;;4.90;3.40;;;;;;;23.43;100.00;100622.38;4996570;28;20060;-84
2022/08/07 04:19:33;;;;;;;4.15;3.15;;;;;;;23.36;100.00;100632.53;5013870;28;20407;-89
2022/08/07 04:21:58;;;;;;;5.50;3.58;;;;;;;23.26;100.00;100635.06;4996483;28;20041;-87
2022/08/07 04:24:25;;;;;;;7.60;3.83;;;;;;;23.29;100.00;100631.03;5013870;28;20025;-85
2022/08/07 04:26:51;;;;;;;4.78;3.58;;;;;;;23.37;100.00;100633.34;4996392;28;20030;-86
2022/08/07 04:29:17;;;;;;;6.30;3.90;;;;;;;23.31;100.00;100637.00;5014034;28;20037;-85
2022/08/07 04:31:44;;;;;;;5.90;3.70;;;;;;;23.23;100.00;100643.66;4996461;28;21161;-85
2022/08/07 04:34:11;;;;;;;5.60;3.70;;;;;;;23.21;100.00;100644.94;4996478;28;20406;-86
2022/08/07 04:36:37;;;;;;;4.85;4.00;;;;;;;23.16;100.00;100643.81;5013619;28;20022;-84
2022/08/07 04:39:04;;;;;;;6.30;4.30;;;;;;;23.17;100.00;100650.84;4996354;28;20406;-83
2022/08/07 04:41:30;;;;;;;6.70;4.50;;;;;;;23.05;100.00;100655.47;4980454;28;20037;-85
2022/08/07 04:43:57;;;;;;;6.70;4.47;;;;;;;23.10;100.00;100644.75;5014162;28;20038;-84
2022/08/07 04:46:44;;;;;;;6.10;4.80;;;;;;;22.95;100.00;100630.94;4997081;28;20030;-83
2022/08/07 04:49:26;;;;;;;7.55;4.80;;;;;;;22.82;100.00;100638.50;4996485;28;20434;-88
2022/08/07 04:52:00;;;;;;;13.25;5.35;;;;;;;22.82;100.00;100641.19;5013332;28;20034;-85
2022/08/07 04:54:41;;;;;;;13.27;5.85;;;;;;;22.79;100.00;100642.50;4996033;28;20034;-87
2022/08/07 04:57:12;;;;;;;8.25;5.05;;;;;;;22.89;100.00;100637.31;4997055;28;20451;-87
2022/08/07 05:00:01;;;;;;;9.85;5.72;;;;;;;23.06;100.00;100648.19;4998678;28;20034;-86
2022/08/07 05:03:03;;;;;;;7.93;5.75;;;;;;;22.88;100.00;100657.28;4995776;28;20033;-86
2022/08/07 05:05:43;;;;;;;9.52;5.68;;;;;;;22.77;100.00;100654.63;4995864;28;20125;-85
2022/08/07 05:08:25;;;;;;;14.55;6.57;;;;;;;22.47;100.00;100647.44;4995542;28;20525;-85
2022/08/07 05:11:00;;;;;;;8.35;6.28;;;;;;;22.22;100.00;100640.66;5012982;28;20549;-85
2022/08/07 05:13:38;;;;;;;9.77;6.53;;;;;;;22.14;100.00;100639.97;4995537;28;20550;-85
2022/08/07 05:16:13;;;;;;;9.00;6.63;;;;;;;22.14;100.00;100634.56;4995489;28;20038;-84
2022/08/07 05:18:50;;;;;;;9.77;6.32;;;;;;;22.09;100.00;100628.22;4994412;28;20053;-87
2022/08/07 05:21:19;;;;;;;12.00;7.70;;;;;;;22.04;100.00;100628.94;4995605;28;20030;-87
2022/08/07 05:23:54;;;;;;;10.35;6.45;;;;;;;22.05;100.00;100627.06;4995900;28;20041;-86
2022/08/07 05:26:23;;;;;;;12.93;7.03;;;;;;;22.05;100.00;100633.28;4995336;28;20034;-84
2022/08/07 05:28:53;;;;;;;11.32;6.55;;;;;;;22.02;100.00;100625.66;4995156;28;20514;-86
2022/08/07 05:31:28;;;;;;;11.35;6.93;;;;;;;22.11;100.00;100621.53;4995338;28;20092;-87
2022/08/07 05:33:57;;;;;;;11.98;6.68;;;;;;;22.20;100.00;100623.91;4995843;28;20482;-86
2022/08/07 05:36:23;;;;;;;9.00;6.65;;;;;;;22.29;100.00;100619.78;4996362;28;20040;-86
2022/08/07 05:38:51;;;;;;;11.48;6.13;;;;;;;22.26;100.00;100620.25;4995729;28;20022;-85
2022/08/07 05:41:17;;;;;;;8.05;6.10;;;;;;;22.19;100.00;100622.25;5015760;28;20061;-82
2022/08/07 05:43:48;;;;;;;8.10;6.22;;;;;;;22.08;100.00;100619.31;5019662;28;20026;-83
2022/08/07 05:46:18;;;;;;;9.07;6.20;;;;;;;22.04;100.00;100615.44;5021121;28;20092;-84
2022/08/07 05:48:45;;;;;;;10.85;6.43;;;;;;;21.93;100.00;100610.03;5013142;28;20057;-88
2022/08/07 05:51:13;;;;;;;9.52;5.60;;;;;;;21.88;100.00;100599.91;4999228;28;20056;-89
2022/08/07 05:53:38;;;;;;;13.43;5.13;;;;;;;21.85;100.00;100597.69;4997650;28;20061;-86
2022/08/07 05:56:05;;;;;;;11.93;5.38;;;;;;;21.94;100.00;100580.09;4996660;28;20475;-90
2022/08/07 05:58:34;;;;;;;9.05;5.05;;;;;;;21.84;100.00;100579.84;4981280;28;20065;-90
2022/08/07 06:01:00;;;;;;;8.00;5.30;;;;;;;21.98;100.00;100572.38;4997407;28;20123;-87
2022/08/07 06:03:29;;;;;;;7.68;5.28;;;;;;;21.98;100.00;100559.69;4997071;28;20042;-88
2022/08/07 06:05:55;;;;;;;9.10;5.43;;;;;;;21.95;100.00;100543.97;5016226;28;20113;-91
2022/08/07 06:08:21;;;;;;;11.60;5.65;;;;;;;21.90;100.00;100530.38;4997096;28;20125;-88
2022/08/07 06:10:48;;;;;;;6.07;5.25;;;;;;;21.84;100.00;100525.06;4996588;28;20053;-89
2022/08/07 06:13:14;;;;;;;10.85;5.68;;;;;;;21.90;100.00;100522.28;4996701;28;20069;-87
2022/08/07 06:15:41;;;;;;;15.48;5.15;;;;;;;21.98;100.00;100503.03;4999159;28;20132;-89
2022/08/07 06:18:17;;;;;;;8.77;4.65;;;;;;;22.04;100.00;100499.38;5016892;28;20041;-91
2022/08/07 06:20:44;;;;;;;9.63;5.32;;;;;;;22.03;100.00;100486.94;5016247;28;20026;-88
2022/08/07 06:23:10;;;;;;;6.93;4.82;;;;;;;21.99;100.00;100487.66;5017343;28;20402;-87
2022/08/07 06:25:40;;;;;;;10.48;4.82;;;;;;;21.98;100.00;100467.94;4995832;28;20026;-88
2022/08/07 06:28:08;;;;;;;8.13;4.47;;;;;;;22.05;100.00;100465.94;5002392;28;20139;-90
2022/08/07 06:30:34;;;;;;;8.45;5.07;;;;;;;21.93;100.00;100473.25;5007218;28;20033;-86
2022/08/07 06:33:01;;;;;;;8.07;5.47;;;;;;;21.94;100.00;100471.38;5011940;28;20504;-87
2022/08/07 06:35:27;;;;;;;7.03;5.35;;;;;;;21.93;100.00;100475.09;5020136;28;20446;-83
2022/08/07 06:37:53;;;;;;;10.13;5.25;;;;;;;22.05;100.00;100478.59;5020446;28;20049;-82
2022/08/07 06:40:19;;;;;;;6.97;4.75;;;;;;;22.11;100.00;100502.75;5034272;28;20045;-89
2022/08/07 06:42:47;;;;;;;5.47;4.88;;;;;;;22.13;100.00;100535.75;5009402;28;20192;-88
2022/08/07 06:45:23;;;;;;;7.30;4.88;;;;;;;22.23;100.00;100558.63;4985482;28;20129;-86
2022/08/07 06:47:56;;;;;;;6.38;5.00;;;;;;;22.31;100.00;100574.44;4998670;28;20042;-86
2022/08/07 06:50:28;;;;;;;5.63;4.95;;;;;;;22.35;100.00;100581.00;4998907;28;20041;-86
2022/08/07 06:52:56;;;;;;;3.17;2.87;;;;;;;22.24;100.00;100584.56;4999456;28;20383;-86
2022/08/07 06:55:30;;;;;;;6.45;4.65;;;;;;;22.24;100.00;100573.78;4984237;28;20291;-89
2022/08/07 06:58:02;;;;;;;5.83;4.27;;;;;;;22.23;100.00;100575.66;4999434;28;20026;-89
2022/08/07 07:00:35;;;;;;;4.97;3.90;;;;;;;22.23;100.00;100578.34;4999735;28;20280;-90
2022/08/07 07:03:03;;;;;;;5.70;3.90;;;;;;;22.20;100.00;100578.81;4983191;28;20372;-87
2022/08/07 07:05:36;;;;;;;11.68;4.60;;;;;;;22.29;100.00;100581.97;4999847;28;20038;-89
2022/08/07 07:08:01;;;;;;;6.88;5.10;;;;;;;22.51;100.00;100604.59;4995677;28;20724;-90
2022/08/07 07:10:32;;;;;;;7.78;4.85;;;;;;;22.56;100.00;100610.94;5015240;28;20037;-84
2022/08/07 07:13:26;;;;;;;6.63;5.10;;;;;;;22.63;100.00;100619.72;4998744;28;20033;-87
2022/08/07 07:15:59;;;;;;;7.22;5.47;;;;;;;22.79;100.00;100620.06;5004702;28;20049;-87
2022/08/07 07:18:28;;;;;;;7.80;6.00;;;;;;;22.89;100.00;100620.28;5015590;28;20188;-86
2022/08/07 07:21:07;;;;;;;9.85;6.90;;;;;;;23.00;100.00;100620.22;5030640;28;20037;-85
2022/08/07 07:23:33;;;;;;;10.82;6.13;;;;;;;23.11;100.00;100619.34;5015671;28;20090;-84
2022/08/07 07:26:02;;;;;;;10.93;6.32;;;;;;;23.19;100.00;100634.38;5015132;28;20077;-85
2022/08/07 07:28:58;;;;;;;11.57;7.43;;;;;;;23.18;100.00;100633.56;5014958;28;20483;-86
2022/08/07 07:31:34;;;;;;;13.15;7.07;;;;;;;23.27;100.00;100639.38;4995550;28;20046;-87
2022/08/07 07:34:07;;;;;;;12.23;6.30;;;;;;;23.23;100.00;100637.41;5016128;28;20034;-87
2022/08/07 07:36:35;;;;;;;9.23;5.68;;;;;;;23.20;100.00;100648.72;5014529;28;20029;-89
2022/08/07 07:39:02;;;;;;;9.30;6.03;;;;;;;23.13;100.00;100649.66;5014995;28;20050;-86
2022/08/07 07:41:30;;;;;;;9.38;6.00;;;;;;;23.10;100.00;100650.16;5018599;28;20061;-82
2022/08/07 07:43:58;;;;;;;9.80;6.40;;;;;;;23.04;100.00;100636.78;4998930;28;20124;-86
2022/08/07 07:46:27;;;;;;;7.70;6.10;;;;;;;22.99;100.00;100640.22;5016033;28;20073;-84
2022/08/07 07:48:54;;;;;;;7.40;5.88;;;;;;;23.00;100.00;100649.94;5016614;28;20046;-86
2022/08/07 07:51:21;;;;;;;9.70;5.68;;;;;;;22.93;100.00;100653.88;5015545;28;20025;-87
2022/08/07 07:53:49;;;;;;;7.38;5.72;;;;;;;22.84;100.00;100656.13;5017317;28;20032;-87
2022/08/07 07:56:16;;;;;;;6.15;5.07;;;;;;;22.90;100.00;100654.34;5014799;28;20048;-85
2022/08/07 07:58:43;;;;;;;8.25;5.20;;;;;;;22.92;100.00;100654.91;4997227;28;20038;-84
2022/08/07 08:01:20;;;;;;;6.85;4.95;;;;;;;22.95;100.00;100655.28;5015015;28;20022;-87
2022/08/07 08:03:48;;;;;;;8.52;5.22;;;;;;;22.93;100.00;100657.41;4997727;28;20053;-86
2022/08/07 08:06:14;;;;;;;7.78;5.60;;;;;;;22.92;100.00;100652.22;4997206;28;20048;-85
2022/08/07 08:08:42;;;;;;;8.88;5.45;;;;;;;22.83;100.00;100646.38;5014739;28;20037;-86
2022/08/07 08:11:10;;;;;;;9.35;6.10;;;;;;;22.79;100.00;100644.38;5014317;28;20510;-86
2022/08/07 08:13:43;;;;;;;7.40;5.90;;;;;;;22.70;100.00;100659.34;5014278;28;20618;-85
2022/08/07 08:16:15;;;;;;;7.43;5.80;;;;;;;22.71;100.00;100661.78;5014602;28;20110;-85
2022/08/07 08:18:41;;;;;;;;;;;;;;;22.77;100.00;100654.63;5014986;28;20053;-84
2022/08/07 08:27:03;;;;;;;6.57;5.88;;;;;;;22.71;100.00;100650.97;5014153;28;19918;-87
2022/08/07 08:29:28;;;;;;;6.75;5.18;;;;;;;22.88;100.00;100651.88;5014893;28;20033;-89
2022/08/07 08:32:16;;;;;;;8.77;5.30;;;;;;;23.00;100.00;100649.94;5015778;28;20125;-85
2022/08/07 08:34:44;;;;;;;8.60;5.55;;;;;;;23.09;100.00;100648.53;5020124;28;20041;-82
2022/08/07 08:37:43;;;;;;;5.80;5.00;;;;;;;23.23;100.00;100648.25;5031925;28;20391;-85
2022/08/07 08:40:14;;;;;;;5.07;4.50;;;;;;;23.45;100.00;100635.69;5029062;28;20041;-88
2022/08/07 08:42:48;;;;;;;7.88;4.30;;;;;;;23.46;100.00;100648.16;5025856;28;20072;-86
2022/08/07 08:45:50;;;;;;;7.47;4.53;;;;;;;23.61;100.00;100645.72;5022258;28;20041;-90
2022/08/07 08:48:57;;;;;;;8.15;4.10;;;;;;;23.48;100.00;100656.84;5015121;28;20045;-88
2022/08/07 08:51:38;;;;;;;7.00;4.93;;;;;;;23.43;100.00;100648.66;5029760;28;20034;-89
2022/08/07 09:09:21;;;;;;;11.48;4.78;;;;;;;23.40;100.00;100639.13;4907270;26;20057;-83
2022/08/07 09:12:29;;;;;;;7.53;5.05;;;;;;;23.43;100.00;100644.03;5016086;28;20036;-82
2022/08/07 09:15:34;;;;;;;5.28;4.38;;;;;;;23.36;100.00;100637.13;4997774;28;20039;-85
2022/08/07 09:18:47;;;;;;;7.07;4.82;;;;;;;23.55;100.00;100633.16;5015899;28;20068;-84
2022/08/07 09:21:33;;;;;;;6.30;4.22;;;;;;;23.47;100.00;100633.53;5015920;28;20026;-82
2022/08/07 09:24:33;;;;;;;10.82;4.88;;;;;;;23.28;100.00;100629.38;5015003;28;20043;-82
2022/08/07 09:27:49;;;;;;;6.38;5.35;;;;;;;23.31;100.00;100623.50;5016112;28;20061;-82
2022/08/07 09:30:21;;;;;;;9.65;5.40;;;;;;;23.20;100.00;100621.69;4999156;28;20019;-81
2022/08/07 09:33:31;;;;;;;8.85;5.20;;;;;;;23.41;100.00;100626.41;4995839;28;20109;-81
2022/08/07 09:36:51;;;;;;;7.78;5.18;;;;;;;23.39;100.00;100626.63;5000525;28;20069;-85
2022/08/07 09:39:53;;;;;;;9.63;5.00;;;;;;;23.57;100.00;100621.03;5013467;28;20061;-84
2022/08/07 09:43:40;;;;;;;9.30;5.70;;;;;;;23.83;100.00;100622.25;5017200;28;20058;-85
2022/08/07 09:46:33;;;;;;;6.38;5.43;;;;;;;23.72;100.00;100614.22;5003477;28;20082;-84
2022/08/07 09:49:42;;;;;;;7.78;5.97;;;;;;;23.66;100.00;100621.47;4980479;28;20051;-82
2022/08/07 09:52:48;;;;;;;9.77;6.30;;;;;;;23.79;100.00;100618.41;4997328;28;20035;-85
2022/08/07 09:56:00;;;;;;;8.10;5.95;;;;;;;23.88;100.00;100616.94;4979548;28;20043;-84
2022/08/07 09:59:25;;;;;;;7.95;6.75;;;;;;;23.97;100.00;100620.84;5005554;28;20089;-83
2022/08/07 10:02:08;;;;;;;9.95;6.50;;;;;;;24.18;100.00;100624.72;4973015;28;20050;-84
2022/08/07 10:04:59;;;;;;;7.72;6.38;;;;;;;24.02;100.00;100606.59;4998626;28;20035;-84
2022/08/07 10:08:10;;;;;;;11.57;7.32;;;;;;;24.08;100.00;100603.72;5001759;28;20023;-85
2022/08/07 10:11:23;;;;;;;8.75;6.55;;;;;;;24.34;100.00;100607.63;5071957;23;20050;-86
2022/08/07 10:14:34;;;;;;;12.15;6.30;;;;;;;24.36;100.00;100600.06;5008437;28;20026;-85
2022/08/07 10:28:58;;;;;;;;;;;;;;;;;;;;;
2022/08/07 10:55:56;;;;;;;12.00;10.52;;;;;;;24.19;100.00;100572.22;4255999;22;20072;-87
2022/08/07 11:09:48;;;;;;;12.93;10.77;;;;;;;24.64;100.00;100559.22;4730467;22;20049;-84
2022/08/07 11:13:07;;;;;;;12.82;11.15;;;;;;;24.70;100.00;100551.97;5026082;28;20034;-85
2022/08/07 11:15:55;;;;;;;12.80;11.47;;;;;;;24.88;100.00;100554.38;5055222;28;20044;-87
2022/08/07 12:00:18;;;;;;;4.97;4.47;;;;;;;25.49;100.00;100527.78;4385990;23;20054;-89
2022/08/07 12:03:10;;;;;;;4.33;3.90;;;;;;;25.57;100.00;100519.22;5018624;28;20049;-89
2022/08/07 12:11:38;;;;;;;6.60;5.72;;;;;;;25.96;100.00;100523.25;5213973;23;20041;-89
2022/08/07 12:15:02;;;;;;;6.18;5.38;;;;;;;25.92;100.00;100516.72;5015915;28;20069;-89
2022/08/07 12:26:05;;;;;;;5.00;3.72;;;;;;;26.07;100.00;100489.66;5331968;22;20042;-89
2022/08/07 13:17:06;;;;;;;5.60;3.40;;;;;;;25.93;99.75;100409.72;5036757;28;20030;-87
2022/08/07 13:25:55;;;;;;;7.82;3.88;;;;;;;26.01;97.02;100421.97;4890223;26;20042;-84
2022/08/07 13:29:36;;;;;;;3.42;3.10;;;;;;;26.07;96.60;100389.13;5049355;23;20038;-84
2022/08/07 13:33:00;;;;;;;6.78;2.80;;;;;;;26.32;97.39;100390.31;5039462;28;20133;-82
2022/08/07 13:36:06;;;;;;;5.78;2.65;;;;;;;26.35;96.25;100392.50;5019566;28;20038;-84
2022/08/07 13:38:51;;;;;;;6.43;3.60;;;;;;;26.33;96.08;100391.94;4959160;29;20048;-84
2022/08/07 13:41:48;;;;;;;4.93;3.15;;;;;;;26.50;97.00;100387.09;4975883;29;20039;-82
2022/08/07 13:45:03;;;;;;;3.10;2.80;;;;;;;26.59;96.24;100386.28;4980733;29;20049;-83
2022/08/07 13:47:59;;;;;;;5.20;3.05;;;;;;;26.59;94.29;100374.59;5010817;28;20040;-85
2022/08/07 13:51:07;;;;;;;3.92;2.92;;;;;;;26.47;95.39;100365.88;5033190;28;20029;-88
2022/08/07 14:02:09;;;;;;;8.80;3.40;;;;;;;26.82;94.47;100363.19;5058353;28;20109;-84
2022/08/07 14:05:27;;;;;;;5.93;3.25;;;;;;;26.85;94.53;100354.50;5060879;28;20051;-87
2022/08/07 14:08:51;;;;;;;3.88;3.00;;;;;;;26.91;94.35;100361.59;5027899;28;20029;-85
2022/08/07 14:19:58;;;;;;;5.13;2.95;;;;;;;27.11;92.08;100334.31;5086324;22;20143;-83
2022/08/07 14:22:34;;;;;;;4.20;3.13;;;;;;;27.03;91.99;100332.19;5022156;28;20138;-84
2022/08/07 14:25:27;;;;;;;6.03;2.80;;;;;;;27.18;92.10;100334.84;5040157;28;20033;-85
2022/08/07 14:28:09;;;;;;;3.50;2.70;;;;;;;27.34;89.13;100337.56;5010957;28;20061;-83
2022/08/07 14:31:02;;;;;;;6.88;3.13;;;;;;;27.22;89.33;100340.56;5013691;28;20060;-83
2022/08/07 14:34:46;;;;;;;2.80;2.50;;;;;;;27.19;89.11;100327.50;5046398;28;20049;-85
2022/08/07 14:38:15;;;;;;;3.78;2.70;;;;;;;27.26;89.83;100333.47;5028118;28;20083;-87
2022/08/07 15:51:48;;;;;;;1.30;1.20;;;;;;;27.92;73.30;100308.72;1287695;22;20308;-87
2022/08/07 15:55:15;;;;;;;3.50;1.33;;;;;;;27.90;73.55;100314.47;5059186;28;20057;-89
2022/08/07 16:11:38;;;;;;;2.28;1.60;;;;;;;27.77;76.32;100336.88;5860451;23;20049;-89
2022/08/07 16:19:36;;;;;;;2.63;1.25;;;;;;;27.86;75.06;100332.47;5435699;22;20041;-82
2022/08/07 17:07:13;;;;;;;1.45;1.35;;;;;;;27.34;79.03;100288.56;4517343;26;20038;-79
2022/08/07 17:10:05;;;;;;;2.30;1.52;;;;;;;27.25;80.20;100285.56;5033080;28;20103;-85
2022/08/07 17:13:21;;;;;;;8.38;1.60;;;;;;;27.08;80.24;100291.34;4998213;28;20033;-83
2022/08/07 17:16:24;;;;;;;2.88;1.60;;;;;;;27.19;80.84;100298.41;5017585;23;20031;-87
2022/08/07 17:19:19;;;;;;;;;;;;;;;27.19;81.58;100297.56;5225705;23;20021;-86
2022/08/07 17:30:34;;;;;;;2.15;1.83;;;;;;;26.98;83.70;100285.94;3979365;22;20121;-82
2022/08/07 17:33:48;;;;;;;3.80;1.63;;;;;;;27.00;84.05;100283.75;5038656;28;20022;-84
2022/08/07 17:36:24;;;;;;;3.33;1.83;;;;;;;26.90;84.49;100286.50;5037232;28;20049;-84
2022/08/07 17:39:19;;;;;;;2.08;1.38;;;;;;;27.07;83.87;100300.63;5019615;28;20069;-81
2022/08/07 17:42:09;;;;;;;2.03;1.63;;;;;;;27.03;84.25;100304.97;5026126;28;20048;-85
2022/08/07 17:44:50;;;;;;;2.60;2.10;;;;;;;27.02;83.94;100300.63;5039525;28;20013;-81